KNLC/NLC METAR and TAF weather

Enter ICAO airport designator
Station Type Date Time Source
KNLC METAR 2019/02/22 21:56 UTC NOAA

KNLC 222156Z 36006KT 10SM FEW045 11/02 A3011 RMK AO2 SLP197 RH/52 T01110017


Station Type Date Time Source
KNLC Decoded METAR 2019/02/22 21:56 UTC NOAA

LEMOORE NAVAL AIR STATION, CA, United States (KNLC) 36-20N 119-57W 72M
Feb 22, 2019 - 04:56 PM EST / 2019.02.22 2156 UTC
Wind: from the N (360 degrees) at 7 MPH (6 KT):0
Visibility: 10 mile(s):0
Sky conditions: mostly clear
Temperature: 52.0 F (11.1 C)
Dew Point: 35.1 F (1.7 C)
Relative Humidity: 52%
Pressure (altimeter): 30.11 in. Hg (1019 hPa)
ob: KNLC 222156Z 36006KT 10SM FEW045 11/02 A3011 RMK AO2 SLP197 RH/52 T01110017
cycle: 22

Station Type Date Time Source
KNLC TAF 2019/02/22 15:27 UTC NOAA

TAF KNLC 2215/2315 VRB06KT 9999 FEW040 550009 530909 531809 QNH3001INS
TEMPO 2215/2221 34008KT SCT050
BECMG 2300/2301 VRB06KT 9999 FEW050 500000 QNH3008INS
TEMPO 2309/2315 6000 BR SCT050 T12/2223Z TM01/2313Z FS30118


Example: see airport list